Time;durP1;ratioP1;P1;durP2;ratioP2;P2;SDS_P1;SDS_P2;PMS_P1;PMS_P2;Temp;Humidity;BMP_temperature;BMP_pressure;BME280_temperature;BME280_humidity;BME280_pressure;Samples;Min_cycle;Max_cycle;Signal;HPM_P1;HPM_P2
2022/11/21 00:00:30;;;;;;;1.88;1.00;;;4.50;99.90;;;;;;5029706;28;20100;-70
2022/11/21 00:03:02;;;;;;;3.33;1.00;;;4.50;99.90;;;;;;5038205;28;20025;-70
2022/11/21 00:05:29;;;;;;;2.97;0.90;;;4.50;99.90;;;;;;5027409;28;20048;-69
2022/11/21 00:07:55;;;;;;;1.65;0.80;;;4.50;99.90;;;;;;5027296;28;20687;-69
2022/11/21 00:10:22;;;;;;;2.15;0.80;;;4.60;99.90;;;;;;5030169;28;20045;-71
2022/11/21 00:12:53;;;;;;;1.85;0.95;;;4.50;99.90;;;;;;5029357;28;20057;-71
2022/11/21 00:15:18;;;;;;;;;;;4.50;99.90;;;;;;5031223;28;20478;-70
2022/11/21 00:17:44;;;;;;;1.45;0.70;;;4.50;99.90;;;;;;5024759;28;19963;-71
2022/11/21 00:20:10;;;;;;;1.25;0.65;;;4.60;99.90;;;;;;5036221;28;20033;-74
2022/11/21 00:22:35;;;;;;;2.30;0.82;;;4.60;99.90;;;;;;5030055;28;20442;-71
2022/11/21 00:25:01;;;;;;;2.05;0.75;;;4.50;99.90;;;;;;5029994;28;20057;-74
2022/11/21 00:27:26;;;;;;;2.05;0.77;;;4.50;99.90;;;;;;5027611;28;20407;-72
2022/11/21 00:29:52;;;;;;;2.55;0.60;;;4.50;99.90;;;;;;5024755;28;20061;-69
2022/11/21 00:32:18;;;;;;;1.10;0.70;;;4.50;99.90;;;;;;5029152;28;20439;-69
2022/11/21 00:34:43;;;;;;;1.70;0.68;;;4.50;99.90;;;;;;5025684;28;20033;-69
2022/11/21 00:37:09;;;;;;;1.45;0.70;;;4.60;99.90;;;;;;5035845;28;20049;-72
2022/11/21 00:39:34;;;;;;;2.53;0.77;;;4.60;99.90;;;;;;5035582;28;20029;-70
2022/11/21 00:42:00;;;;;;;1.73;0.77;;;4.50;99.90;;;;;;5030642;28;20113;-71
2022/11/21 00:44:25;;;;;;;2.25;0.70;;;4.60;99.90;;;;;;5029749;28;20040;-69
2022/11/21 00:46:51;;;;;;;2.80;0.70;;;4.50;99.90;;;;;;5031994;28;20493;-71
2022/11/21 00:49:17;;;;;;;1.58;0.63;;;4.60;99.90;;;;;;5028348;28;20034;-71
2022/11/21 00:51:42;;;;;;;1.08;0.70;;;4.60;99.90;;;;;;5029452;28;20105;-68
2022/11/21 00:54:08;;;;;;;3.00;0.60;;;4.60;99.90;;;;;;5032342;28;20080;-67
2022/11/21 00:56:34;;;;;;;1.17;0.50;;;4.60;99.90;;;;;;5025207;28;20537;-71
2022/11/21 00:58:59;;;;;;;1.38;0.60;;;4.70;99.90;;;;;;5031003;28;20116;-69
2022/11/21 01:01:25;;;;;;;2.88;0.70;;;4.70;99.90;;;;;;5035651;28;20079;-69
2022/11/21 01:03:50;;;;;;;1.73;0.60;;;4.60;99.90;;;;;;5036664;28;20482;-69
2022/11/21 01:06:16;;;;;;;1.77;0.60;;;4.60;99.90;;;;;;5029347;28;20626;-71
2022/11/21 01:08:43;;;;;;;1.90;0.60;;;4.60;99.90;;;;;;5035683;28;20055;-66
2022/11/21 01:11:13;;;;;;;2.53;0.50;;;4.60;99.90;;;;;;5035147;28;20153;-70
2022/11/21 01:13:39;;;;;;;1.25;0.60;;;4.60;99.90;;;;;;5031228;28;20032;-67
2022/11/21 01:16:14;;;;;;;3.75;0.68;;;4.50;99.90;;;;;;5030175;28;20033;-69
2022/11/21 01:18:39;;;;;;;1.48;0.50;;;4.50;99.90;;;;;;5027206;28;20063;-69
2022/11/21 01:21:29;;;;;;;1.80;0.57;;;4.50;99.90;;;;;;5035015;28;20469;-70
2022/11/21 01:23:58;;;;;;;1.90;0.38;;;4.50;99.90;;;;;;5032066;28;20025;-68
2022/11/21 01:26:25;;;;;;;2.67;0.50;;;4.40;99.90;;;;;;5029809;28;20037;-70
2022/11/21 01:28:52;;;;;;;2.08;0.47;;;4.40;99.90;;;;;;5031125;28;20033;-69
2022/11/21 01:31:20;;;;;;;2.03;0.47;;;4.40;99.90;;;;;;5030272;28;20413;-72
2022/11/21 01:33:46;;;;;;;1.20;0.45;;;4.40;99.90;;;;;;5035887;28;20103;-73
2022/11/21 01:36:19;;;;;;;0.90;0.40;;;4.40;99.90;;;;;;5042054;28;20125;-70
2022/11/21 01:38:46;;;;;;;1.17;0.43;;;4.30;99.90;;;;;;5041059;28;20037;-68
2022/11/21 01:41:19;;;;;;;1.20;0.50;;;4.30;99.90;;;;;;5034878;28;20374;-68
2022/11/21 01:43:46;;;;;;;1.60;0.57;;;4.30;99.90;;;;;;5037745;28;20033;-69
2022/11/21 01:46:14;;;;;;;1.45;0.85;;;4.30;99.90;;;;;;5027958;28;20065;-68
2022/11/21 01:48:52;;;;;;;1.75;0.60;;;4.40;99.90;;;;;;5026686;28;20026;-68
2022/11/21 01:51:27;;;;;;;2.15;0.50;;;4.40;99.90;;;;;;5028055;28;20155;-75
2022/11/21 01:54:22;;;;;;;3.13;0.63;;;4.50;99.90;;;;;;5035621;28;20064;-68
2022/11/21 01:56:48;;;;;;;2.55;0.75;;;4.40;99.90;;;;;;5023352;28;20518;-69
2022/11/21 01:59:21;;;;;;;1.30;0.80;;;4.40;99.90;;;;;;5032940;28;20041;-69
2022/11/21 02:01:50;;;;;;;1.45;0.70;;;4.40;99.90;;;;;;5031129;28;20364;-69
2022/11/21 02:04:16;;;;;;;2.72;0.70;;;4.30;99.90;;;;;;5031818;28;20093;-75
2022/11/21 02:06:42;;;;;;;5.28;1.10;;;4.30;99.90;;;;;;5025478;28;20459;-70
2022/11/21 02:09:08;;;;;;;1.60;0.70;;;4.30;99.90;;;;;;5028981;28;20112;-70
2022/11/21 02:11:41;;;;;;;3.85;0.82;;;4.30;99.90;;;;;;5029674;28;20189;-69
2022/11/21 02:14:07;;;;;;;4.60;0.85;;;4.40;99.90;;;;;;5028560;28;20029;-70
2022/11/21 02:16:34;;;;;;;2.45;0.60;;;4.40;99.90;;;;;;5031852;28;20109;-67
2022/11/21 02:19:00;;;;;;;3.38;0.80;;;4.40;99.90;;;;;;5025746;28;20037;-71
2022/11/21 02:21:38;;;;;;;5.75;0.80;;;4.40;99.90;;;;;;5034934;28;20038;-67
2022/11/21 02:24:26;;;;;;;6.57;0.70;;;4.40;99.90;;;;;;5034292;28;20505;-67
2022/11/21 02:26:52;;;;;;;4.03;0.80;;;4.30;99.90;;;;;;5022160;28;20128;-67
2022/11/21 02:29:18;;;;;;;3.25;0.80;;;4.30;99.90;;;;;;5034631;28;20113;-73
2022/11/21 02:31:44;;;;;;;3.88;0.80;;;4.30;99.90;;;;;;5026917;28;20029;-67
2022/11/21 02:34:09;;;;;;;1.98;0.73;;;4.20;99.90;;;;;;5028659;28;20025;-71
2022/11/21 02:36:38;;;;;;;1.33;0.50;;;4.20;99.90;;;;;;5032240;28;20510;-70
2022/11/21 02:39:06;;;;;;;3.38;0.70;;;4.20;99.90;;;;;;5041485;28;20405;-67
2022/11/21 02:41:36;;;;;;;1.25;0.40;;;4.10;99.90;;;;;;5034214;28;20029;-67
2022/11/21 02:44:07;;;;;;;2.50;0.30;;;4.10;99.90;;;;;;5036092;28;20041;-66
2022/11/21 02:46:34;;;;;;;2.55;0.70;;;4.10;99.90;;;;;;5032867;28;20037;-65
2022/11/21 02:49:05;;;;;;;3.40;0.60;;;4.00;99.90;;;;;;5028820;28;20029;-69
2022/11/21 02:51:30;;;;;;;1.88;0.50;;;4.00;99.90;;;;;;5029195;28;20502;-68
2022/11/21 02:53:56;;;;;;;1.85;0.47;;;3.90;99.90;;;;;;5026368;28;20116;-68
2022/11/21 02:56:22;;;;;;;2.33;0.50;;;3.90;99.90;;;;;;5028232;28;20041;-75
2022/11/21 02:58:47;;;;;;;2.42;0.40;;;3.80;99.90;;;;;;5025988;28;20391;-72
2022/11/21 03:01:13;;;;;;;2.35;0.50;;;3.80;99.90;;;;;;5030416;28;20064;-68
2022/11/21 03:03:38;;;;;;;0.75;0.30;;;3.70;99.90;;;;;;5033549;28;20558;-70
2022/11/21 03:06:04;;;;;;;1.90;0.50;;;3.70;99.90;;;;;;5026253;28;20033;-68
2022/11/21 03:08:30;;;;;;;1.42;0.50;;;3.60;99.90;;;;;;5027666;28;20109;-69
2022/11/21 03:10:55;;;;;;;2.60;0.90;;;3.60;99.90;;;;;;5027645;28;20033;-69
2022/11/21 03:13:21;;;;;;;1.65;0.60;;;3.60;99.90;;;;;;5032239;28;20037;-76
2022/11/21 03:15:46;;;;;;;4.03;0.52;;;3.60;99.90;;;;;;5029735;28;20042;-75
2022/11/21 03:18:12;;;;;;;3.00;0.52;;;3.60;99.90;;;;;;5025627;28;20044;-70
2022/11/21 03:20:38;;;;;;;2.65;0.68;;;3.60;99.90;;;;;;5028063;28;20034;-70
2022/11/21 03:23:03;;;;;;;4.28;0.75;;;3.70;99.90;;;;;;5032815;28;20036;-65
2022/11/21 03:25:30;;;;;;;4.60;0.98;;;3.70;99.90;;;;;;5032319;28;20028;-66
2022/11/21 03:27:55;;;;;;;1.58;0.65;;;3.70;99.90;;;;;;5035752;28;20031;-64
2022/11/21 03:30:23;;;;;;;2.22;1.10;;;3.70;99.90;;;;;;5028706;28;20055;-69
2022/11/21 03:32:48;;;;;;;2.53;0.90;;;3.80;99.90;;;;;;5023266;28;20490;-67
2022/11/21 03:35:14;;;;;;;1.98;0.80;;;3.80;99.90;;;;;;5027734;28;20060;-65
2022/11/21 03:37:40;;;;;;;1.52;0.60;;;3.90;99.90;;;;;;5030161;28;20094;-65
2022/11/21 03:40:06;;;;;;;2.95;1.20;;;3.90;99.90;;;;;;5026657;28;20033;-67
2022/11/21 03:42:32;;;;;;;3.03;1.00;;;4.00;99.90;;;;;;5040833;28;20501;-70
2022/11/21 03:44:57;;;;;;;3.13;0.85;;;4.00;99.90;;;;;;5025623;28;20101;-65
2022/11/21 03:47:24;;;;;;;4.75;1.20;;;4.00;99.90;;;;;;5022219;28;20053;-71
2022/11/21 03:49:50;;;;;;;4.18;1.27;;;4.10;99.90;;;;;;5029189;28;20710;-63
2022/11/21 03:52:15;;;;;;;6.75;1.58;;;4.10;99.90;;;;;;5027274;28;20033;-65
2022/11/21 03:54:41;;;;;;;8.45;1.40;;;4.10;99.90;;;;;;5031367;28;20040;-66
2022/11/21 03:57:07;;;;;;;5.45;1.33;;;4.20;99.90;;;;;;5027927;28;20410;-67
2022/11/21 03:59:32;;;;;;;5.30;1.90;;;4.20;99.90;;;;;;5026834;28;20045;-68
2022/11/21 04:01:58;;;;;;;3.70;1.10;;;4.20;99.90;;;;;;5031215;28;20168;-65
2022/11/21 04:04:23;;;;;;;4.45;1.30;;;4.20;99.90;;;;;;5026563;28;20398;-71
2022/11/21 04:06:49;;;;;;;10.80;1.77;;;4.20;99.90;;;;;;5025367;28;20038;-66
2022/11/21 04:09:14;;;;;;;2.28;0.90;;;4.10;99.90;;;;;;5027877;28;20045;-67
2022/11/21 04:11:40;;;;;;;5.88;1.17;;;4.20;99.90;;;;;;5034982;28;20849;-65
2022/11/21 04:14:06;;;;;;;3.90;1.35;;;4.20;99.90;;;;;;5032588;28;20140;-63
2022/11/21 04:16:31;;;;;;;6.78;1.35;;;4.20;99.90;;;;;;5028655;28;20642;-66
2022/11/21 04:18:57;;;;;;;6.50;1.40;;;4.30;99.90;;;;;;5031745;28;20061;-67
2022/11/21 04:21:22;;;;;;;4.68;1.20;;;4.30;99.90;;;;;;5031459;28;20034;-71
2022/11/21 04:23:48;;;;;;;6.55;0.85;;;4.30;99.90;;;;;;5030643;28;20037;-64
2022/11/21 04:26:14;;;;;;;3.85;1.00;;;4.30;99.90;;;;;;5029911;28;20113;-65
2022/11/21 04:28:39;;;;;;;5.18;0.80;;;4.40;99.90;;;;;;5037551;28;20037;-67
2022/11/21 04:31:06;;;;;;;3.00;0.80;;;4.40;99.90;;;;;;5034016;28;20377;-68
2022/11/21 04:33:32;;;;;;;1.80;0.65;;;4.30;99.90;;;;;;5032000;28;20394;-65
2022/11/21 04:35:58;;;;;;;3.88;0.90;;;4.40;99.90;;;;;;5030385;28;20025;-65
2022/11/21 04:38:23;;;;;;;3.90;1.00;;;4.40;99.90;;;;;;5035709;28;20043;-68
2022/11/21 04:40:49;;;;;;;7.88;0.70;;;4.40;99.90;;;;;;5023894;28;20535;-66
2022/11/21 04:43:15;;;;;;;2.67;0.93;;;4.40;99.90;;;;;;5031092;28;20041;-65
2022/11/21 04:45:40;;;;;;;5.35;1.10;;;4.40;99.90;;;;;;5030301;28;20052;-66
2022/11/21 04:48:06;;;;;;;3.78;1.02;;;4.40;99.90;;;;;;5030561;28;20681;-67
2022/11/21 04:50:32;;;;;;;6.25;1.10;;;4.40;99.90;;;;;;5029138;28;20037;-65
2022/11/21 04:52:57;;;;;;;5.32;1.00;;;4.40;99.90;;;;;;5031396;28;20036;-65
2022/11/21 04:55:27;;;;;;;6.78;1.20;;;4.40;99.90;;;;;;5029653;28;20048;-63
2022/11/21 04:57:53;;;;;;;4.50;1.40;;;4.40;99.90;;;;;;5029253;28;20022;-64
2022/11/21 05:00:20;;;;;;;4.82;1.30;;;4.40;99.90;;;;;;5031042;28;20986;-65
2022/11/21 05:02:46;;;;;;;2.42;1.15;;;4.30;99.90;;;;;;5028990;28;20037;-64
2022/11/21 05:05:12;;;;;;;7.82;1.27;;;4.30;99.90;;;;;;5031080;28;20048;-66
2022/11/21 05:07:38;;;;;;;5.38;1.70;;;4.30;99.90;;;;;;5028351;28;20026;-64
2022/11/21 05:10:07;;;;;;;4.93;1.42;;;4.30;99.90;;;;;;5030947;28;20745;-63
2022/11/21 05:15:18;;;;;;;4.00;1.45;;;4.30;99.90;;;;;;5030924;28;20057;-66
2022/11/21 05:17:43;;;;;;;5.18;1.67;;;4.30;99.90;;;;;;5028599;28;20035;-64
2022/11/21 05:20:10;;;;;;;8.65;2.10;;;4.30;99.90;;;;;;5030048;28;20494;-69
2022/11/21 05:22:35;;;;;;;9.43;1.90;;;4.30;99.90;;;;;;5028977;28;20445;-68
2022/11/21 05:25:01;;;;;;;2.63;1.52;;;4.30;99.90;;;;;;5030050;28;20061;-65
2022/11/21 05:27:27;;;;;;;7.43;1.75;;;4.30;99.90;;;;;;5030151;28;20064;-69
2022/11/21 05:29:53;;;;;;;3.08;1.45;;;4.30;99.90;;;;;;5029910;28;20520;-64
2022/11/21 05:32:19;;;;;;;5.10;1.58;;;4.30;99.90;;;;;;5030945;28;20131;-65
2022/11/21 05:34:44;;;;;;;6.05;1.60;;;4.20;99.90;;;;;;5031947;28;20164;-64
2022/11/21 05:37:10;;;;;;;3.97;1.42;;;4.30;99.90;;;;;;5028559;28;20457;-64
2022/11/21 05:39:35;;;;;;;5.68;1.88;;;4.20;99.90;;;;;;5029433;28;20044;-64
2022/11/21 05:42:01;;;;;;;5.00;2.03;;;4.20;99.90;;;;;;5029919;28;20482;-63
2022/11/21 05:44:27;;;;;;;5.65;2.22;;;4.30;99.90;;;;;;5030437;28;20043;-67
2022/11/21 05:46:52;;;;;;;5.60;2.28;;;4.20;99.90;;;;;;5028113;28;20029;-66
2022/11/21 05:49:18;;;;;;;4.75;1.98;;;4.30;99.90;;;;;;5029238;28;20129;-68
2022/11/21 05:51:44;;;;;;;3.50;1.85;;;4.30;99.90;;;;;;5027721;28;20179;-66
2022/11/21 05:54:13;;;;;;;5.57;2.30;;;4.30;99.90;;;;;;5028657;28;20033;-69
2022/11/21 05:56:39;;;;;;;3.80;1.60;;;4.30;99.90;;;;;;5026239;28;20442;-71
2022/11/21 05:59:04;;;;;;;6.85;1.60;;;4.30;99.90;;;;;;5028831;28;20160;-67
2022/11/21 06:04:25;;;;;;;4.43;1.70;;;4.40;99.90;;;;;;5008930;28;20038;-68
2022/11/21 06:06:50;;;;;;;3.67;1.33;;;4.40;99.90;;;;;;5027139;28;20044;-66
2022/11/21 06:09:16;;;;;;;6.47;1.45;;;4.40;99.90;;;;;;5029724;28;20143;-68
2022/11/21 06:11:42;;;;;;;3.35;1.20;;;4.40;99.90;;;;;;5028675;28;20053;-68
2022/11/21 06:14:07;;;;;;;4.10;1.15;;;4.30;99.90;;;;;;5029267;28;20060;-69
2022/11/21 06:16:33;;;;;;;3.63;1.20;;;4.30;99.90;;;;;;5028332;28;20064;-73
2022/11/21 06:18:59;;;;;;;3.88;1.25;;;4.30;99.90;;;;;;5028803;28;20482;-69
2022/11/21 06:21:27;;;;;;;8.27;1.20;;;4.30;99.90;;;;;;5029426;28;20036;-68
2022/11/21 06:23:55;;;;;;;3.60;1.75;;;4.40;99.90;;;;;;5028737;28;20021;-68
2022/11/21 06:26:24;;;;;;;4.53;1.25;;;4.30;99.90;;;;;;5027927;28;20034;-69
2022/11/21 06:28:50;;;;;;;3.13;1.55;;;4.40;99.90;;;;;;5028709;28;20163;-68
2022/11/21 06:31:18;;;;;;;5.18;1.50;;;4.40;99.90;;;;;;5027501;28;20036;-66
2022/11/21 06:33:45;;;;;;;4.43;1.77;;;4.40;99.90;;;;;;5023490;28;20033;-67
2022/11/21 06:36:13;;;;;;;2.88;1.13;;;4.30;99.90;;;;;;5027544;28;20523;-66
2022/11/21 06:38:39;;;;;;;3.85;1.50;;;4.30;99.90;;;;;;5027755;28;20131;-67
2022/11/21 06:41:17;;;;;;;3.33;0.85;;;4.20;99.90;;;;;;5029385;28;20127;-64
2022/11/21 06:43:43;;;;;;;1.67;0.80;;;4.00;99.90;;;;;;5028541;28;20025;-64
2022/11/21 06:46:09;;;;;;;5.18;1.10;;;3.90;99.90;;;;;;5027896;28;20037;-67
2022/11/21 06:48:36;;;;;;;3.72;1.10;;;3.80;99.90;;;;;;5028549;28;20095;-73
2022/11/21 06:51:06;;;;;;;3.33;1.40;;;3.90;99.90;;;;;;5028210;28;20037;-69
2022/11/21 06:53:33;;;;;;;;;;;3.90;99.90;;;;;;5028368;28;20031;-72
2022/11/21 06:55:59;;;;;;;3.08;1.30;;;4.00;99.90;;;;;;5024278;28;21286;-67
2022/11/21 06:58:24;;;;;;;3.17;1.60;;;4.00;99.90;;;;;;5027683;28;20036;-66
2022/11/21 07:00:50;;;;;;;3.42;1.55;;;3.90;99.90;;;;;;5028179;28;20478;-67
2022/11/21 07:03:17;;;;;;;7.47;1.98;;;4.00;99.90;;;;;;5028689;28;20045;-65
2022/11/21 07:05:42;;;;;;;3.40;1.73;;;4.00;99.90;;;;;;5027933;28;20040;-65
2022/11/21 07:08:08;;;;;;;6.00;1.60;;;4.10;99.90;;;;;;5027540;28;20033;-65
2022/11/21 07:10:34;;;;;;;4.75;1.80;;;4.10;99.90;;;;;;5027990;28;20389;-71
2022/11/21 07:15:45;;;;;;;3.33;1.42;;;4.20;99.90;;;;;;5019578;28;20060;-65
2022/11/21 07:18:11;;;;;;;3.72;1.27;;;4.20;99.90;;;;;;5033010;28;20068;-68
2022/11/21 07:20:37;;;;;;;3.83;1.60;;;4.20;99.90;;;;;;5027634;28;20040;-72
2022/11/21 07:23:02;;;;;;;4.82;1.65;;;4.20;99.90;;;;;;5028593;28;20037;-64
2022/11/21 07:25:28;;;;;;;4.97;1.73;;;4.20;99.90;;;;;;5027564;28;20434;-66
2022/11/21 07:27:56;;;;;;;5.40;1.58;;;4.30;99.90;;;;;;5026746;28;20025;-66
2022/11/21 07:30:22;;;;;;;3.42;1.50;;;4.20;99.90;;;;;;5028184;28;20056;-65
2022/11/21 07:32:57;;;;;;;3.33;1.60;;;4.20;99.90;;;;;;5027675;28;20068;-65
2022/11/21 07:35:23;;;;;;;3.63;1.70;;;4.20;99.90;;;;;;5027116;28;20033;-64
2022/11/21 07:37:49;;;;;;;3.13;1.65;;;4.20;99.90;;;;;;5027777;28;20044;-68
2022/11/21 07:40:15;;;;;;;4.82;2.05;;;4.20;99.90;;;;;;5027780;28;20029;-66
2022/11/21 07:42:40;;;;;;;3.65;1.38;;;4.30;99.90;;;;;;5027671;28;20103;-65
2022/11/21 07:45:07;;;;;;;7.82;1.88;;;4.20;99.90;;;;;;5026665;28;20411;-66
2022/11/21 07:47:32;;;;;;;8.75;2.17;;;4.20;99.90;;;;;;5026133;28;20029;-65
2022/11/21 07:49:58;;;;;;;5.70;1.73;;;4.30;99.90;;;;;;5027180;28;20033;-66
2022/11/21 07:52:24;;;;;;;4.25;1.70;;;4.30;99.90;;;;;;5028259;28;20041;-66
2022/11/21 07:54:50;;;;;;;7.38;1.85;;;4.30;99.90;;;;;;5026335;28;20208;-65
2022/11/21 07:57:16;;;;;;;5.68;2.00;;;4.30;99.90;;;;;;5019637;28;20030;-66
2022/11/21 07:59:43;;;;;;;4.32;2.08;;;4.30;99.90;;;;;;5023620;28;20175;-67
2022/11/21 08:02:18;;;;;;;5.75;2.05;;;4.30;99.90;;;;;;5025176;28;20048;-66
2022/11/21 08:04:44;;;;;;;7.60;2.00;;;4.30;99.90;;;;;;5025495;28;20029;-65
2022/11/21 08:07:09;;;;;;;10.20;2.08;;;4.30;99.90;;;;;;5027905;28;20033;-67
2022/11/21 08:09:35;;;;;;;5.05;1.52;;;4.30;99.90;;;;;;5027265;28;20488;-67
2022/11/21 08:12:01;;;;;;;4.28;1.88;;;4.30;99.90;;;;;;5029407;28;20049;-66
2022/11/21 08:14:26;;;;;;;6.80;1.63;;;4.30;99.90;;;;;;5025768;28;20045;-70
2022/11/21 08:16:52;;;;;;;3.80;1.50;;;4.30;99.90;;;;;;5023996;28;20048;-67
2022/11/21 08:19:18;;;;;;;3.20;1.40;;;4.30;99.90;;;;;;5025164;28;20386;-66
2022/11/21 08:21:43;;;;;;;5.03;1.50;;;4.30;99.90;;;;;;5025031;28;20560;-66
2022/11/21 08:24:13;;;;;;;3.60;1.30;;;4.30;99.90;;;;;;5026561;28;20553;-68
2022/11/21 08:26:39;;;;;;;4.60;1.70;;;4.30;99.90;;;;;;5027746;28;20037;-73
2022/11/21 08:29:05;;;;;;;3.97;1.40;;;4.40;99.90;;;;;;5025156;28;20026;-65
2022/11/21 08:31:31;;;;;;;2.47;1.10;;;4.40;99.90;;;;;;5026749;28;20040;-67
2022/11/21 08:33:56;;;;;;;2.78;1.17;;;4.40;99.90;;;;;;5026852;28;20105;-66
2022/11/21 08:36:22;;;;;;;4.57;1.10;;;4.50;99.90;;;;;;5027597;28;20041;-67
2022/11/21 08:38:48;;;;;;;4.65;1.38;;;4.60;99.90;;;;;;5024405;28;20034;-66
2022/11/21 08:43:58;;;;;;;6.22;1.20;;;4.70;99.90;;;;;;5026597;28;20077;-66
2022/11/21 08:46:27;;;;;;;4.38;1.25;;;4.70;99.90;;;;;;5027555;28;20064;-65
2022/11/21 08:48:55;;;;;;;4.55;1.20;;;4.70;99.90;;;;;;5024907;28;20474;-63
2022/11/21 08:51:21;;;;;;;5.15;1.10;;;4.70;99.90;;;;;;5027030;28;20051;-68
2022/11/21 08:53:47;;;;;;;2.95;1.17;;;4.70;99.90;;;;;;5026864;28;20638;-67
2022/11/21 08:56:12;;;;;;;7.22;1.40;;;4.80;99.90;;;;;;5027624;28;20037;-66
2022/11/21 08:58:39;;;;;;;5.15;1.38;;;4.70;99.90;;;;;;5029745;28;20033;-64
2022/11/21 09:01:05;;;;;;;3.03;1.20;;;4.70;99.90;;;;;;5012662;28;20504;-65
2022/11/21 09:03:31;;;;;;;5.32;1.55;;;4.80;99.90;;;;;;5029361;28;20104;-67
2022/11/21 09:05:57;;;;;;;5.55;1.40;;;4.70;99.90;;;;;;5029859;28;20678;-67
2022/11/21 09:08:23;;;;;;;3.90;1.13;;;4.80;99.90;;;;;;5031109;28;20112;-66
2022/11/21 09:10:49;;;;;;;7.40;1.25;;;4.80;99.90;;;;;;5030221;28;20530;-66
2022/11/21 09:13:14;;;;;;;4.32;1.20;;;4.90;99.90;;;;;;5029835;28;20037;-67
2022/11/21 09:18:24;;;;;;;3.88;1.20;;;5.50;99.90;;;;;;5030905;28;20060;-67
2022/11/21 09:20:50;;;;;;;3.63;1.33;;;5.60;99.90;;;;;;5028443;28;20444;-67
2022/11/21 09:23:16;;;;;;;5.13;1.45;;;5.70;99.90;;;;;;5029869;28;20622;-65
2022/11/21 09:25:42;;;;;;;7.88;1.42;;;5.80;99.90;;;;;;5030564;28;20037;-73
2022/11/21 09:28:10;;;;;;;8.15;1.50;;;5.90;99.90;;;;;;5029913;28;20465;-66
2022/11/21 09:30:36;;;;;;;4.10;1.50;;;6.10;99.90;;;;;;5030732;28;20078;-68
2022/11/21 09:33:09;;;;;;;3.47;1.30;;;6.10;99.90;;;;;;5027466;28;20030;-65
2022/11/21 09:35:35;;;;;;;8.02;1.13;;;6.10;99.90;;;;;;5030107;28;20033;-66
2022/11/21 09:38:00;;;;;;;5.05;1.67;;;5.90;99.90;;;;;;5027682;28;20791;-67
2022/11/21 09:40:29;;;;;;;8.20;1.63;;;5.90;99.90;;;;;;5030559;28;20042;-67
2022/11/21 09:43:25;;;;;;;4.18;1.63;;;5.80;99.90;;;;;;5029485;28;20155;-68
2022/11/21 09:46:04;;;;;;;7.20;1.60;;;5.90;99.90;;;;;;5029724;28;20052;-67
2022/11/21 09:48:57;;;;;;;3.78;1.38;;;5.80;99.90;;;;;;5028671;28;20041;-67
2022/11/21 09:51:24;;;;;;;5.15;1.42;;;5.90;99.90;;;;;;5021846;28;20038;-66
2022/11/21 09:54:19;;;;;;;2.92;1.20;;;6.30;99.90;;;;;;5027796;28;20056;-68
2022/11/21 09:56:46;;;;;;;5.10;1.20;;;6.30;99.90;;;;;;5029783;28;20045;-73
2022/11/21 09:59:36;;;;;;;8.15;1.50;;;6.30;99.90;;;;;;5028765;28;20042;-63
2022/11/21 10:02:09;;;;;;;4.30;1.40;;;6.20;99.90;;;;;;5029087;28;20394;-67
2022/11/21 10:04:35;;;;;;;5.40;1.17;;;6.20;99.90;;;;;;5030263;28;20041;-66
2022/11/21 10:07:10;;;;;;;6.40;1.77;;;6.30;99.90;;;;;;5027606;28;20045;-66
2022/11/21 10:10:03;;;;;;;3.53;0.93;;;6.70;99.90;;;;;;5022720;28;20548;-66
2022/11/21 10:12:53;;;;;;;3.22;1.15;;;6.80;99.90;;;;;;5022420;28;20037;-65
2022/11/21 10:15:19;;;;;;;8.95;1.38;;;6.70;99.90;;;;;;5029741;28;20040;-65
2022/11/21 10:18:08;;;;;;;8.25;1.35;;;6.70;99.90;;;;;;5028444;28;20033;-72
2022/11/21 10:20:40;;;;;;;5.68;0.95;;;6.60;99.90;;;;;;5028511;28;20032;-67
2022/11/21 10:23:28;;;;;;;7.72;1.40;;;6.30;99.90;;;;;;5028861;28;20029;-66
2022/11/21 10:25:56;;;;;;;6.28;1.10;;;6.20;99.90;;;;;;5027805;28;20112;-67
2022/11/21 10:28:33;;;;;;;6.97;1.45;;;6.20;99.90;;;;;;5029670;28;20486;-64
2022/11/21 10:31:00;;;;;;;4.65;1.00;;;6.20;99.90;;;;;;5028988;28;20063;-66
2022/11/21 10:33:30;;;;;;;5.68;1.10;;;6.50;99.90;;;;;;5029817;28;20033;-67
2022/11/21 10:36:01;;;;;;;16.00;1.50;;;6.30;99.90;;;;;;5027008;28;20052;-66
2022/11/21 10:38:28;;;;;;;5.93;1.10;;;6.20;99.90;;;;;;5029359;28;20033;-69
2022/11/21 10:41:17;;;;;;;3.92;1.05;;;6.20;99.90;;;;;;5028565;28;20108;-65
2022/11/21 10:46:59;;;;;;;6.07;1.27;;;6.10;99.90;;;;;;5019098;28;20144;-69
2022/11/21 10:49:28;;;;;;;9.20;1.25;;;6.10;99.90;;;;;;5027995;28;20486;-66
2022/11/21 10:52:05;;;;;;;7.57;1.52;;;6.10;99.90;;;;;;5027519;28;20030;-66
2022/11/21 10:54:31;;;;;;;7.28;1.65;;;6.10;99.90;;;;;;5029044;28;20040;-67
2022/11/21 10:57:12;;;;;;;8.30;1.58;;;6.20;99.90;;;;;;5025944;28;20457;-66
2022/11/21 10:59:38;;;;;;;11.85;2.33;;;6.50;99.90;;;;;;5028998;28;20180;-66
2022/11/21 11:02:13;;;;;;;8.15;1.35;;;6.90;99.90;;;;;;5026060;28;20029;-67
2022/11/21 11:04:39;;;;;;;4.30;1.20;;;7.30;99.90;;;;;;5028773;28;20021;-67
2022/11/21 11:07:26;;;;;;;5.95;1.20;;;7.60;99.90;;;;;;5026808;28;20030;-66
2022/11/21 11:10:14;;;;;;;4.38;1.38;;;7.80;99.90;;;;;;5021615;28;20025;-65
2022/11/21 11:15:26;;;;;;;5.82;1.27;;;8.10;99.90;;;;;;5028796;28;20048;-66
2022/11/21 11:18:03;;;;;;;6.30;1.55;;;7.90;99.90;;;;;;5027697;28;20168;-71
2022/11/21 11:20:41;;;;;;;5.25;1.10;;;7.70;99.90;;;;;;5026771;28;20083;-66
2022/11/21 11:23:18;;;;;;;3.33;1.20;;;7.70;99.90;;;;;;5025068;28;20103;-66
2022/11/21 11:25:50;;;;;;;7.15;1.10;;;8.00;99.90;;;;;;5028322;28;20438;-68
2022/11/21 11:28:18;;;;;;;9.80;1.50;;;8.10;99.90;;;;;;5028465;28;20087;-66
2022/11/21 11:30:45;;;;;;;5.90;1.08;;;7.90;99.90;;;;;;5028545;28;20031;-67
2022/11/21 11:33:27;;;;;;;11.80;1.42;;;7.70;99.90;;;;;;5026432;28;20033;-67
2022/11/21 11:36:02;;;;;;;7.40;1.45;;;7.70;99.90;;;;;;5020731;28;20033;-68
2022/11/21 11:38:30;;;;;;;3.17;1.25;;;7.90;99.90;;;;;;5028349;28;20029;-67
2022/11/21 11:40:59;;;;;;;4.70;1.50;;;8.10;99.90;;;;;;5027353;28;20463;-67
2022/11/21 11:49:10;;;;;;;7.65;1.40;;;8.30;99.90;;;;;;5020527;28;20034;-69
2022/11/21 11:51:41;;;;;;;7.43;0.93;;;8.30;99.90;;;;;;5026732;28;20034;-68
2022/11/21 11:54:23;;;;;;;9.57;1.17;;;8.40;99.90;;;;;;5025530;28;20487;-67
2022/11/21 11:56:49;;;;;;;7.57;1.00;;;8.30;99.90;;;;;;5028049;28;20034;-67
2022/11/21 11:59:19;;;;;;;5.68;0.90;;;7.80;99.90;;;;;;5027671;28;20046;-66
2022/11/21 12:02:06;;;;;;;10.50;1.30;;;7.30;99.90;;;;;;5028037;28;20057;-66
2022/11/21 12:04:40;;;;;;;4.30;1.20;;;7.40;99.90;;;;;;5027329;28;20077;-66
2022/11/21 12:07:10;;;;;;;5.15;1.13;;;7.30;99.90;;;;;;5027493;28;20033;-66
2022/11/21 12:10:13;;;;;;;7.63;1.20;;;7.20;99.90;;;;;;5028170;28;20116;-66
2022/11/21 12:12:46;;;;;;;7.78;1.05;;;7.10;99.90;;;;;;5026246;28;20133;-67
2022/11/21 12:18:18;;;;;;;4.72;1.92;;;8.00;99.90;;;;;;5024572;28;20036;-66
2022/11/21 12:21:06;;;;;;;8.63;1.35;;;8.50;99.90;;;;;;5027658;28;20103;-66
2022/11/21 12:23:52;;;;;;;11.07;1.35;;;8.80;99.90;;;;;;5026685;28;20048;-66
2022/11/21 12:26:32;;;;;;;8.25;1.20;;;8.70;99.90;;;;;;5026964;28;20029;-66
2022/11/21 12:29:06;;;;;;;4.72;1.35;;;8.60;99.90;;;;;;5027069;28;20129;-67
2022/11/21 12:32:03;;;;;;;12.15;1.27;;;8.70;99.90;;;;;;5026627;28;20168;-66
2022/11/21 12:35:02;;;;;;;8.27;1.55;;;8.50;99.90;;;;;;5027278;28;20485;-65
2022/11/21 12:37:57;;;;;;;6.00;1.13;;;8.10;99.90;;;;;;5026562;28;20033;-65
2022/11/21 12:40:23;;;;;;;4.72;1.25;;;8.00;99.90;;;;;;5025483;28;20049;-64
2022/11/21 12:43:08;;;;;;;8.38;1.60;;;8.60;99.90;;;;;;5031578;28;20091;-67
2022/11/21 12:45:36;;;;;;;7.50;1.10;;;9.30;99.90;;;;;;5031959;28;20040;-64
2022/11/21 12:54:42;;;;;;;6.55;1.00;;;9.80;99.90;;;;;;5025733;28;20036;-64
2022/11/21 12:57:11;;;;;;;3.17;0.80;;;9.50;99.90;;;;;;5029202;28;20509;-67
2022/11/21 13:00:11;;;;;;;5.67;0.83;;;9.40;99.90;;;;;;5031268;28;20033;-67
2022/11/21 13:03:14;;;;;;;5.13;0.85;;;9.80;99.90;;;;;;5025704;28;20540;-66
2022/11/21 13:05:44;;;;;;;4.63;1.10;;;9.70;99.90;;;;;;5027047;28;20036;-65
2022/11/21 13:08:15;;;;;;;4.47;1.00;;;9.40;99.90;;;;;;5028285;28;20371;-66
2022/11/21 13:14:01;;;;;;;4.78;1.00;;;9.10;99.90;;;;;;5027555;28;20048;-66
2022/11/21 13:16:35;;;;;;;2.35;0.63;;;9.20;99.90;;;;;;5023372;28;20040;-67
2022/11/21 13:19:15;;;;;;;5.65;0.82;;;9.10;99.90;;;;;;5030114;28;20029;-67
2022/11/21 13:21:48;;;;;;;2.90;0.63;;;9.10;99.90;;;;;;5031073;28;20060;-66
2022/11/21 13:24:46;;;;;;;6.53;0.80;;;8.80;99.90;;;;;;5029964;28;20279;-64
2022/11/21 13:27:57;;;;;;;5.03;0.82;;;8.60;99.90;;;;;;5028510;28;20053;-68
2022/11/21 13:30:23;;;;;;;;;;;8.60;99.90;;;;;;5022224;28;20041;-65
2022/11/21 13:32:53;;;;;;;3.65;0.70;;;8.60;99.90;;;;;;5030214;28;19909;-68
2022/11/21 13:35:19;;;;;;;4.72;0.95;;;8.70;99.90;;;;;;5029507;28;20128;-68
2022/11/21 13:37:51;;;;;;;5.15;0.80;;;8.60;99.90;;;;;;5030657;28;20525;-66
2022/11/21 13:40:26;;;;;;;3.97;1.10;;;8.50;99.90;;;;;;5028795;28;20021;-66
2022/11/21 13:43:18;;;;;;;7.72;1.25;;;8.40;99.90;;;;;;5030629;28;20108;-69
2022/11/21 13:45:52;;;;;;;5.90;1.70;;;8.70;99.90;;;;;;5029988;28;20029;-64
2022/11/21 13:48:30;;;;;;;4.80;1.73;;;9.10;99.90;;;;;;5029577;28;20030;-67